createdAt,value
2022-12-29T00:01:00.531Z,8.03
2022-12-29T00:03:27.711Z,8.93
2022-12-29T00:05:59.588Z,9.13
2022-12-29T00:08:41.046Z,9.13
2022-12-29T00:11:14.372Z,9.43
2022-12-29T00:14:00.639Z,8.60
2022-12-29T00:16:28.699Z,8.67
2022-12-29T00:18:56.181Z,8.33
2022-12-29T00:21:43.127Z,9.00
2022-12-29T00:24:28.227Z,6.90
2022-12-29T00:27:23.707Z,7.00
2022-12-29T00:30:09.934Z,7.30
2022-12-29T00:32:55.967Z,6.23
2022-12-29T00:35:26.169Z,5.80
2022-12-29T00:38:13.842Z,5.17
2022-12-29T00:41:00.352Z,5.03
2022-12-29T00:43:45.958Z,4.47
2022-12-29T00:46:19.428Z,4.97
2022-12-29T00:49:05.581Z,4.70
2022-12-29T00:51:32.898Z,4.17
2022-12-29T00:54:00.059Z,4.20
2022-12-29T00:56:27.067Z,4.20
2022-12-29T00:58:54.344Z,4.40
2022-12-29T01:01:21.868Z,4.27
2022-12-29T01:03:49.196Z,4.60
2022-12-29T01:06:16.588Z,4.10
2022-12-29T01:08:45.496Z,4.03
2022-12-29T01:11:14.034Z,4.43
2022-12-29T01:13:42.403Z,4.50
2022-12-29T01:16:11.992Z,4.20
2022-12-29T01:18:39.252Z,4.27
2022-12-29T01:21:07.215Z,4.37
2022-12-29T01:23:34.419Z,4.33
2022-12-29T01:26:15.007Z,4.37
2022-12-29T01:28:42.675Z,4.03
2022-12-29T01:31:11.654Z,4.10
2022-12-29T01:33:39.047Z,3.80
2022-12-29T01:36:08.925Z,4.00
2022-12-29T01:38:37.953Z,4.40
2022-12-29T01:41:06.783Z,4.20
2022-12-29T01:43:45.741Z,4.37
2022-12-29T01:46:25.145Z,3.93
2022-12-29T01:48:59.320Z,4.27
2022-12-29T01:51:29.180Z,4.47
2022-12-29T01:53:59.571Z,4.57
2022-12-29T01:56:27.328Z,4.10
2022-12-29T01:59:03.998Z,4.30
2022-12-29T02:01:31.485Z,4.07
2022-12-29T02:04:05.795Z,3.70
2022-12-29T02:06:41.032Z,3.50
2022-12-29T02:09:08.500Z,3.47
2022-12-29T02:11:37.430Z,3.70
2022-12-29T02:14:11.179Z,3.83
2022-12-29T02:16:44.537Z,3.47
2022-12-29T02:19:34.014Z,3.87
2022-12-29T02:22:04.373Z,3.83
2022-12-29T02:24:47.187Z,3.23
2022-12-29T02:27:29.315Z,3.57
2022-12-29T02:30:13.042Z,3.50
2022-12-29T02:33:13.492Z,3.70
2022-12-29T02:36:03.133Z,3.40
2022-12-29T02:38:42.101Z,3.90
2022-12-29T02:41:31.428Z,3.87
2022-12-29T02:44:18.895Z,4.20
2022-12-29T02:47:30.171Z,4.67
2022-12-29T02:50:09.934Z,4.80
2022-12-29T02:52:49.939Z,5.00
2022-12-29T02:55:17.230Z,6.00
2022-12-29T02:57:44.450Z,6.17
2022-12-29T03:00:18.336Z,5.70
2022-12-29T03:03:13.553Z,6.17
2022-12-29T03:06:00.696Z,5.27
2022-12-29T03:08:53.215Z,5.30
2022-12-29T03:11:38.922Z,5.40
2022-12-29T03:14:42.973Z,4.93
2022-12-29T03:17:17.900Z,4.43
2022-12-29T03:19:52.506Z,5.20
2022-12-29T03:22:29.200Z,4.63
2022-12-29T03:25:13.041Z,5.23
2022-12-29T03:28:11.173Z,4.93
2022-12-29T03:30:44.351Z,5.33
2022-12-29T03:33:17.315Z,4.90
2022-12-29T03:35:50.226Z,5.77
2022-12-29T03:38:24.415Z,5.10
2022-12-29T03:40:57.869Z,5.13
2022-12-29T03:43:29.001Z,4.97
2022-12-29T03:45:57.231Z,5.50
2022-12-29T03:48:24.539Z,5.43
2022-12-29T03:50:54.729Z,5.67
2022-12-29T03:53:23.345Z,6.00
2022-12-29T03:55:51.248Z,5.83
2022-12-29T03:58:18.762Z,6.30
2022-12-29T04:01:04.489Z,6.07
2022-12-29T04:03:35.508Z,6.57
2022-12-29T04:06:03.211Z,6.43
2022-12-29T04:08:38.885Z,7.13
2022-12-29T04:11:07.417Z,6.97
2022-12-29T04:13:35.969Z,6.97
2022-12-29T04:16:13.837Z,7.43
2022-12-29T04:18:42.000Z,7.20
2022-12-29T04:21:09.572Z,6.93
2022-12-29T04:23:40.829Z,6.67
2022-12-29T04:26:11.298Z,6.40
2022-12-29T04:28:51.689Z,6.70
2022-12-29T04:31:39.611Z,6.87
2022-12-29T04:34:10.771Z,5.93
2022-12-29T04:36:42.650Z,5.53
2022-12-29T04:39:10.340Z,5.37
2022-12-29T04:41:40.092Z,4.43
2022-12-29T04:44:10.249Z,4.30
2022-12-29T04:47:00.420Z,4.20
2022-12-29T04:49:56.243Z,3.93
2022-12-29T04:52:43.831Z,4.10
2022-12-29T04:55:16.986Z,4.10
2022-12-29T04:57:46.114Z,4.03
2022-12-29T05:00:19.066Z,4.00
2022-12-29T05:02:46.779Z,4.40
2022-12-29T05:05:15.381Z,3.50
2022-12-29T05:07:46.714Z,4.07
2022-12-29T05:10:16.689Z,4.10
2022-12-29T05:12:46.745Z,4.20
2022-12-29T05:15:15.525Z,4.30
2022-12-29T05:17:44.471Z,3.70
2022-12-29T05:20:14.388Z,3.90
2022-12-29T05:22:43.131Z,4.00
2022-12-29T05:25:11.014Z,3.63
2022-12-29T05:27:52.198Z,4.60
2022-12-29T05:30:45.549Z,3.93
2022-12-29T05:33:12.923Z,3.90
2022-12-29T05:35:41.056Z,4.00
2022-12-29T05:38:08.423Z,4.27
2022-12-29T05:40:35.742Z,3.87
2022-12-29T05:43:07.742Z,3.73
2022-12-29T05:46:01.316Z,3.77
2022-12-29T05:48:54.781Z,4.20
2022-12-29T05:51:37.929Z,4.27
2022-12-29T05:54:05.358Z,4.87
2022-12-29T05:56:32.505Z,5.00
2022-12-29T05:59:01.948Z,4.87
2022-12-29T06:01:29.140Z,4.80
2022-12-29T06:03:56.532Z,4.93
2022-12-29T06:06:23.866Z,5.23
2022-12-29T06:08:52.040Z,5.10
2022-12-29T06:11:20.373Z,4.13
2022-12-29T06:13:54.497Z,4.33
2022-12-29T06:16:21.876Z,4.47
2022-12-29T06:18:51.561Z,4.30
2022-12-29T06:21:18.677Z,4.33
2022-12-29T06:23:48.513Z,4.17
2022-12-29T06:26:15.538Z,4.30
2022-12-29T06:28:42.698Z,4.43
2022-12-29T06:31:13.237Z,4.43
2022-12-29T06:33:40.585Z,4.03
2022-12-29T06:36:08.506Z,4.10
2022-12-29T06:38:36.367Z,4.13
2022-12-29T06:41:03.754Z,4.30
2022-12-29T06:43:39.384Z,4.33
2022-12-29T06:46:20.261Z,4.23
2022-12-29T06:48:47.592Z,4.50
2022-12-29T06:51:14.605Z,4.40
2022-12-29T06:53:41.746Z,4.73
2022-12-29T06:56:09.201Z,4.83
2022-12-29T06:58:36.517Z,4.30
2022-12-29T07:01:03.796Z,4.40
2022-12-29T07:03:31.045Z,5.30
2022-12-29T07:05:59.284Z,4.20
2022-12-29T07:08:26.460Z,4.10
2022-12-29T07:10:53.625Z,4.13
2022-12-29T07:13:20.746Z,3.90
2022-12-29T07:15:47.892Z,3.97
2022-12-29T07:18:15.047Z,3.80
2022-12-29T07:20:42.478Z,3.70
2022-12-29T07:23:09.839Z,3.40
2022-12-29T07:25:37.332Z,3.47
2022-12-29T07:28:05.228Z,3.80
2022-12-29T07:30:32.402Z,3.63
2022-12-29T07:32:59.615Z,3.97
2022-12-29T07:35:26.756Z,4.20
2022-12-29T07:37:53.990Z,3.83
2022-12-29T07:40:21.184Z,4.50
2022-12-29T07:42:48.464Z,4.30
2022-12-29T07:45:17.017Z,4.30
2022-12-29T07:48:03.875Z,3.87
2022-12-29T07:50:31.048Z,4.68
2022-12-29T07:52:58.466Z,4.43
2022-12-29T07:55:25.548Z,5.10
2022-12-29T07:57:56.273Z,5.03
2022-12-29T08:00:26.583Z,4.53
2022-12-29T08:02:53.869Z,4.50
2022-12-29T08:05:20.977Z,4.43
2022-12-29T08:07:48.434Z,4.03
2022-12-29T08:10:16.610Z,4.30
2022-12-29T08:12:44.717Z,4.47
2022-12-29T08:15:13.276Z,3.70
2022-12-29T08:17:40.698Z,4.15
2022-12-29T08:20:08.401Z,4.25
2022-12-29T08:22:35.776Z,4.13
2022-12-29T08:25:02.816Z,4.07
2022-12-29T08:27:29.943Z,5.03
2022-12-29T08:29:56.917Z,5.65
2022-12-29T08:32:24.136Z,5.53
2022-12-29T08:34:51.668Z,4.95
2022-12-29T08:37:18.699Z,4.97
2022-12-29T08:39:45.923Z,4.75
2022-12-29T08:42:13.022Z,4.15
2022-12-29T08:44:40.205Z,4.38
2022-12-29T08:47:07.449Z,4.32
2022-12-29T08:49:34.810Z,4.72
2022-12-29T08:52:01.931Z,4.32
2022-12-29T08:54:29.241Z,4.40
2022-12-29T08:56:56.419Z,4.85
2022-12-29T08:59:32.048Z,5.53
2022-12-29T09:01:59.826Z,5.40
2022-12-29T09:04:28.517Z,5.80
2022-12-29T09:06:55.716Z,6.10
2022-12-29T09:09:23.225Z,5.28
2022-12-29T09:11:50.591Z,6.03
2022-12-29T09:14:17.725Z,6.63
2022-12-29T09:17:03.442Z,6.28
2022-12-29T09:19:31.719Z,6.07
2022-12-29T09:21:58.672Z,6.78
2022-12-29T09:24:25.796Z,6.97
2022-12-29T09:26:53.320Z,7.07
2022-12-29T09:29:20.831Z,7.50
2022-12-29T09:31:47.994Z,6.13
2022-12-29T09:34:15.145Z,7.28
2022-12-29T09:36:42.153Z,5.25
2022-12-29T09:39:09.756Z,5.22
2022-12-29T09:41:42.565Z,5.35
2022-12-29T09:44:45.210Z,5.13
2022-12-29T09:47:15.722Z,5.07
2022-12-29T09:49:55.752Z,5.18
2022-12-29T09:52:53.581Z,4.97
2022-12-29T09:55:23.542Z,5.30
2022-12-29T09:57:58.591Z,5.68
2022-12-29T10:00:55.126Z,5.47
2022-12-29T10:03:26.044Z,5.60
2022-12-29T10:06:26.027Z,5.43
2022-12-29T10:09:02.758Z,5.38
2022-12-29T10:11:41.839Z,5.35
2022-12-29T10:14:35.756Z,5.47
2022-12-29T10:17:44.428Z,5.43
2022-12-29T10:20:29.970Z,5.53
2022-12-29T10:23:25.378Z,5.65
2022-12-29T10:25:56.667Z,6.03
2022-12-29T10:28:34.887Z,6.43
2022-12-29T10:31:08.729Z,6.45
2022-12-29T10:33:40.438Z,6.78
2022-12-29T10:36:39.816Z,6.00
2022-12-29T10:39:20.680Z,6.32
2022-12-29T10:41:53.902Z,6.57
2022-12-29T10:44:21.748Z,6.82
2022-12-29T10:46:58.326Z,7.18
2022-12-29T10:49:27.718Z,7.65
2022-12-29T10:51:58.191Z,7.25
2022-12-29T10:54:33.925Z,7.10
2022-12-29T10:57:14.911Z,7.22
2022-12-29T10:59:42.786Z,7.63
2022-12-29T11:02:13.363Z,6.78
2022-12-29T11:04:50.385Z,7.60
2022-12-29T11:07:26.970Z,7.38
2022-12-29T11:09:55.087Z,7.30
2022-12-29T11:12:29.513Z,7.18
2022-12-29T11:15:08.864Z,6.78
2022-12-29T11:17:52.959Z,6.35
2022-12-29T11:20:32.298Z,6.20
2022-12-29T11:23:00.739Z,6.35
2022-12-29T11:25:28.302Z,6.95
2022-12-29T11:28:16.627Z,6.70
2022-12-29T11:30:44.466Z,6.70
2022-12-29T11:33:11.497Z,7.13
2022-12-29T11:35:44.450Z,6.75
2022-12-29T11:38:23.926Z,5.90
2022-12-29T11:40:51.353Z,5.65
2022-12-29T11:43:34.682Z,5.38
2022-12-29T11:46:05.975Z,5.50
2022-12-29T11:48:43.769Z,5.70
2022-12-29T11:51:12.900Z,4.97
2022-12-29T11:53:53.446Z,5.05
2022-12-29T11:56:39.981Z,4.90
2022-12-29T11:59:32.589Z,4.72
2022-12-29T12:02:02.026Z,4.95
2022-12-29T12:04:37.553Z,4.30
2022-12-29T12:07:16.751Z,4.10
2022-12-29T12:09:50.320Z,4.95
2022-12-29T12:12:42.531Z,4.55
2022-12-29T12:15:18.944Z,4.80
2022-12-29T12:18:09.532Z,4.63
2022-12-29T12:20:45.745Z,5.43
2022-12-29T12:23:26.631Z,4.75
2022-12-29T12:26:17.717Z,5.20
2022-12-29T12:29:11.846Z,4.88
2022-12-29T12:32:00.499Z,5.38
2022-12-29T12:34:38.690Z,4.90
2022-12-29T12:37:36.809Z,4.72
2022-12-29T12:40:48.791Z,5.57
2022-12-29T12:43:42.119Z,5.30
2022-12-29T12:46:35.886Z,4.95
2022-12-29T12:49:06.154Z,5.70
2022-12-29T12:51:45.098Z,5.38
2022-12-29T12:54:33.657Z,5.60
2022-12-29T12:57:26.852Z,5.90
2022-12-29T13:00:01.949Z,5.85
2022-12-29T13:02:44.325Z,5.97
2022-12-29T13:05:14.528Z,5.47
2022-12-29T13:08:08.294Z,5.10
2022-12-29T13:10:49.856Z,6.00
2022-12-29T13:13:46.596Z,5.68
2022-12-29T13:16:43.149Z,6.78
2022-12-29T13:19:29.059Z,6.00
2022-12-29T13:22:10.877Z,6.13
2022-12-29T13:24:44.725Z,5.70
2022-12-29T13:27:40.333Z,5.65
2022-12-29T13:30:12.581Z,6.00
2022-12-29T13:32:49.174Z,5.68
2022-12-29T13:35:46.631Z,5.95
2022-12-29T13:39:09.378Z,6.07
2022-12-29T13:41:45.563Z,6.53
2022-12-29T13:44:59.846Z,7.30
2022-12-29T13:47:47.516Z,6.95
2022-12-29T13:50:20.849Z,7.00
2022-12-29T13:53:19.544Z,7.53
2022-12-29T13:56:28.010Z,6.95
2022-12-29T13:59:04.832Z,6.88
2022-12-29T14:01:48.083Z,6.57
2022-12-29T14:04:22.876Z,6.35
2022-12-29T14:07:03.854Z,6.25
2022-12-29T14:09:45.943Z,5.80
2022-12-29T14:12:37.676Z,6.13
2022-12-29T14:15:12.603Z,7.00
2022-12-29T14:18:00.573Z,5.20
2022-12-29T14:20:27.866Z,6.00
2022-12-29T14:23:09.585Z,6.22
2022-12-29T14:25:57.345Z,6.35
2022-12-29T14:28:29.297Z,6.60
2022-12-29T14:30:58.544Z,6.25
2022-12-29T14:33:30.571Z,6.32
2022-12-29T14:36:18.361Z,6.35
2022-12-29T14:38:47.241Z,6.07
2022-12-29T14:41:30.615Z,6.63
2022-12-29T14:44:19.675Z,6.55
2022-12-29T14:46:58.559Z,6.63
2022-12-29T14:49:29.396Z,7.15
2022-12-29T14:52:25.868Z,7.05
2022-12-29T14:54:54.562Z,7.18
2022-12-29T14:57:24.055Z,7.50
2022-12-29T14:59:56.137Z,8.07
2022-12-29T15:02:27.524Z,7.38
2022-12-29T15:04:59.541Z,7.18
2022-12-29T15:07:29.243Z,7.38
2022-12-29T15:10:04.419Z,7.20
2022-12-29T15:12:34.547Z,6.60
2022-12-29T15:15:02.596Z,6.60
2022-12-29T15:17:31.985Z,6.93
2022-12-29T15:20:01.658Z,7.40
2022-12-29T15:22:29.191Z,7.07
2022-12-29T15:24:57.988Z,7.28
2022-12-29T15:27:28.357Z,7.45
2022-12-29T15:30:04.013Z,7.40
2022-12-29T15:32:43.396Z,7.82
2022-12-29T15:35:29.370Z,7.72
2022-12-29T15:37:57.337Z,8.00
2022-12-29T15:40:30.173Z,8.95
2022-12-29T15:43:06.583Z,9.82
2022-12-29T15:45:35.779Z,8.98
2022-12-29T15:48:04.665Z,8.88
2022-12-29T15:50:34.953Z,9.70
2022-12-29T15:53:03.424Z,9.75
2022-12-29T15:55:42.793Z,9.15
2022-12-29T15:58:22.953Z,9.68
2022-12-29T16:00:54.351Z,9.07
2022-12-29T16:03:22.501Z,10.05
2022-12-29T16:05:58.456Z,10.55
2022-12-29T16:08:32.431Z,9.85
2022-12-29T16:11:01.639Z,10.32
2022-12-29T16:13:40.422Z,10.25
2022-12-29T16:16:31.047Z,10.82
2022-12-29T16:18:59.217Z,11.02
2022-12-29T16:21:30.051Z,10.38
2022-12-29T16:24:06.123Z,10.75
2022-12-29T16:26:33.582Z,10.65
2022-12-29T16:29:08.642Z,10.52
2022-12-29T16:32:06.067Z,11.23
2022-12-29T16:34:39.009Z,10.40
2022-12-29T16:37:30.441Z,10.02
2022-12-29T16:40:17.834Z,10.23
2022-12-29T16:42:51.006Z,9.73
2022-12-29T16:45:24.699Z,10.15
2022-12-29T16:48:07.355Z,9.80
2022-12-29T16:50:36.873Z,10.60
2022-12-29T16:53:05.354Z,10.27
2022-12-29T16:55:33.882Z,11.30
2022-12-29T16:58:01.624Z,10.85
2022-12-29T17:00:32.985Z,10.32
2022-12-29T17:03:02.002Z,11.10
2022-12-29T17:05:29.238Z,11.23
2022-12-29T17:08:01.913Z,11.15
2022-12-29T17:10:49.915Z,11.27
2022-12-29T17:13:17.181Z,11.90
2022-12-29T17:15:44.406Z,11.63
2022-12-29T17:18:14.225Z,12.32
2022-12-29T17:20:41.736Z,12.40
2022-12-29T17:23:19.940Z,11.40
2022-12-29T17:25:51.755Z,11.20
2022-12-29T17:28:23.639Z,11.95
2022-12-29T17:30:53.844Z,16.45
2022-12-29T17:33:21.896Z,11.60
2022-12-29T17:35:54.862Z,11.68
2022-12-29T17:38:25.274Z,11.20
2022-12-29T17:40:52.807Z,11.57
2022-12-29T17:43:20.569Z,11.23
2022-12-29T17:45:53.928Z,11.45
2022-12-29T17:48:21.436Z,11.88
2022-12-29T17:50:51.825Z,11.93
2022-12-29T17:53:26.243Z,11.50
2022-12-29T17:55:53.613Z,12.70
2022-12-29T17:58:33.914Z,12.05
2022-12-29T18:01:03.068Z,12.35
2022-12-29T18:03:36.375Z,12.98
2022-12-29T18:06:06.818Z,12.68
2022-12-29T18:08:35.905Z,12.40
2022-12-29T18:11:04.230Z,12.02
2022-12-29T18:13:45.590Z,12.38
2022-12-29T18:16:14.280Z,12.30
2022-12-29T18:18:41.778Z,13.05
2022-12-29T18:21:17.015Z,11.77
2022-12-29T18:23:45.051Z,11.02
2022-12-29T18:26:19.678Z,11.20
2022-12-29T18:28:51.647Z,13.45
2022-12-29T18:31:24.428Z,11.18
2022-12-29T18:33:53.181Z,11.48
2022-12-29T18:36:20.913Z,11.18
2022-12-29T18:38:48.583Z,11.02
2022-12-29T18:41:20.810Z,11.00
2022-12-29T18:43:48.119Z,11.38
2022-12-29T18:46:22.091Z,13.02
2022-12-29T18:48:51.294Z,11.93
2022-12-29T18:51:21.580Z,12.50
2022-12-29T18:53:49.462Z,12.30
2022-12-29T18:56:16.760Z,13.10
2022-12-29T18:58:44.063Z,13.13
2022-12-29T19:01:22.782Z,12.90
2022-12-29T19:03:50.351Z,13.40
2022-12-29T19:06:17.744Z,14.00
2022-12-29T19:08:44.917Z,14.45
2022-12-29T19:11:12.027Z,14.82
2022-12-29T19:13:40.445Z,14.07
2022-12-29T19:16:12.547Z,14.00
2022-12-29T19:18:44.614Z,14.40
2022-12-29T19:21:12.796Z,14.27
2022-12-29T19:23:40.142Z,14.48
2022-12-29T19:26:07.361Z,14.23
2022-12-29T19:28:34.500Z,14.20
2022-12-29T19:31:03.077Z,13.80
2022-12-29T19:33:30.330Z,13.05
2022-12-29T19:36:02.728Z,13.27
2022-12-29T19:38:29.981Z,13.05
2022-12-29T19:40:57.377Z,12.88
2022-12-29T19:43:24.697Z,14.77
2022-12-29T19:45:53.434Z,15.32
2022-12-29T19:48:21.338Z,16.42
2022-12-29T19:50:48.667Z,16.75
2022-12-29T19:53:16.431Z,17.20
2022-12-29T19:55:47.930Z,16.92
2022-12-29T19:58:15.294Z,16.42
2022-12-29T20:00:43.704Z,16.05
2022-12-29T20:03:11.532Z,17.40
2022-12-29T20:05:39.687Z,16.73
2022-12-29T20:08:07.209Z,17.10
2022-12-29T20:10:34.693Z,15.52
2022-12-29T20:13:02.837Z,14.95
2022-12-29T20:15:29.830Z,14.95
2022-12-29T20:18:14.444Z,12.98
2022-12-29T20:20:42.676Z,11.23
2022-12-29T20:23:10.114Z,11.10
2022-12-29T20:25:46.146Z,10.40
2022-12-29T20:28:14.745Z,10.60
2022-12-29T20:30:41.902Z,10.60
2022-12-29T20:33:09.107Z,11.18
2022-12-29T20:35:37.032Z,11.55
2022-12-29T20:38:04.748Z,11.48
2022-12-29T20:40:32.266Z,11.40
2022-12-29T20:43:00.803Z,10.90
2022-12-29T20:45:28.143Z,11.07
2022-12-29T20:47:55.361Z,9.90
2022-12-29T20:50:22.553Z,9.85
2022-12-29T20:52:49.707Z,10.15
2022-12-29T20:55:16.852Z,9.93
2022-12-29T20:58:21.883Z,9.18
2022-12-29T21:00:32.839Z,9.10
2022-12-29T21:03:01.165Z,9.40
2022-12-29T21:05:28.914Z,9.35
2022-12-29T21:07:59.070Z,9.38
2022-12-29T21:10:26.268Z,8.95
2022-12-29T21:12:53.988Z,9.30
2022-12-29T21:15:21.134Z,9.25
2022-12-29T21:17:48.241Z,9.65
2022-12-29T21:20:20.291Z,27.35
2022-12-29T21:22:48.723Z,15.48
2022-12-29T21:25:15.970Z,9.93
2022-12-29T21:27:45.956Z,9.82
2022-12-29T21:30:13.755Z,10.02
2022-12-29T21:32:41.617Z,9.43
2022-12-29T21:35:09.998Z,10.65
2022-12-29T21:37:37.627Z,11.32
2022-12-29T21:40:05.891Z,10.57
2022-12-29T21:42:34.078Z,11.50
2022-12-29T21:45:20.985Z,12.23
2022-12-29T21:48:07.515Z,13.18
2022-12-29T21:50:59.469Z,13.52
2022-12-29T21:53:38.016Z,12.10
2022-12-29T21:56:06.346Z,11.52
2022-12-29T21:58:52.111Z,12.43
2022-12-29T22:01:37.965Z,12.98
2022-12-29T22:04:23.700Z,13.30
2022-12-29T22:07:09.965Z,13.63
2022-12-29T22:09:55.746Z,13.38
2022-12-29T22:12:41.453Z,13.55
2022-12-29T22:15:08.982Z,15.75
2022-12-29T22:17:41.241Z,15.57
2022-12-29T22:20:11.198Z,15.55
2022-12-29T22:22:38.309Z,17.33
2022-12-29T22:25:06.449Z,17.02
2022-12-29T22:27:33.633Z,17.08
2022-12-29T22:30:00.816Z,17.25
2022-12-29T22:32:28.205Z,15.70
2022-12-29T22:34:55.347Z,15.48
2022-12-29T22:37:22.400Z,15.93
2022-12-29T22:39:49.765Z,16.65
2022-12-29T22:42:17.049Z,14.90
2022-12-29T22:44:44.375Z,15.38
2022-12-29T22:47:11.535Z,16.65
2022-12-29T22:49:38.722Z,18.65
2022-12-29T22:52:05.989Z,18.58
2022-12-29T22:54:33.208Z,20.38
2022-12-29T22:57:00.269Z,19.80
2022-12-29T22:59:27.483Z,18.90
2022-12-29T23:01:54.974Z,18.23
2022-12-29T23:07:09.279Z,17.50
2022-12-29T23:09:36.484Z,18.38
2022-12-29T23:12:03.651Z,18.25
2022-12-29T23:14:30.704Z,20.42
2022-12-29T23:16:57.840Z,20.30
2022-12-29T23:19:25.157Z,21.15
2022-12-29T23:21:52.484Z,23.45
2022-12-29T23:24:19.574Z,23.60
2022-12-29T23:26:48.150Z,45.10
2022-12-29T23:29:18.206Z,28.35
2022-12-29T23:31:46.485Z,20.80
2022-12-29T23:34:15.951Z,19.50
2022-12-29T23:36:43.318Z,19.17
2022-12-29T23:39:15.698Z,16.88
2022-12-29T23:41:42.946Z,16.55
2022-12-29T23:44:10.148Z,17.05
2022-12-29T23:46:37.202Z,16.63
2022-12-29T23:49:04.414Z,17.85
2022-12-29T23:51:31.889Z,16.90
2022-12-29T23:53:58.951Z,16.98
2022-12-29T23:56:26.272Z,19.42
2022-12-29T23:58:54.550Z,20.95
